sensor_id;sensor_type;location;lat;lon;timestamp;pressure;altitude;pressure_sealevel;temperature;humidity
63281;BME280;49406;51.044;3.766;2023-12-20T00:00:48;101933.00;;;6.92;100.00
63281;BME280;49406;51.044;3.766;2023-12-20T00:03:23;101937.30;;;6.90;100.00
63281;BME280;49406;51.044;3.766;2023-12-20T00:05:58;101938.12;;;6.90;100.00
63281;BME280;49406;51.044;3.766;2023-12-20T00:08:32;101943.80;;;6.89;100.00
63281;BME280;49406;51.044;3.766;2023-12-20T00:11:07;101944.77;;;6.87;100.00
63281;BME280;49406;51.044;3.766;2023-12-20T00:13:41;101944.55;;;6.86;100.00
63281;BME280;49406;51.044;3.766;2023-12-20T00:16:16;101939.90;;;6.83;100.00
63281;BME280;49406;51.044;3.766;2023-12-20T00:18:50;101935.75;;;6.83;100.00
63281;BME280;49406;51.044;3.766;2023-12-20T00:21:25;101932.30;;;6.84;100.00
63281;BME280;49406;51.044;3.766;2023-12-20T00:24:00;101939.54;;;6.82;100.00
63281;BME280;49406;51.044;3.766;2023-12-20T00:26:35;101938.04;;;6.80;100.00
63281;BME280;49406;51.044;3.766;2023-12-20T00:29:09;101941.19;;;6.76;100.00
63281;BME280;49406;51.044;3.766;2023-12-20T00:31:44;101939.19;;;6.78;100.00
63281;BME280;49406;51.044;3.766;2023-12-20T00:34:18;101931.35;;;6.78;100.00
63281;BME280;49406;51.044;3.766;2023-12-20T00:36:53;101936.98;;;6.79;100.00
63281;BME280;49406;51.044;3.766;2023-12-20T00:39:28;101947.17;;;6.78;100.00
63281;BME280;49406;51.044;3.766;2023-12-20T00:42:02;101941.05;;;6.77;100.00
63281;BME280;49406;51.044;3.766;2023-12-20T00:44:37;101936.27;;;6.74;100.00
63281;BME280;49406;51.044;3.766;2023-12-20T00:47:11;101931.02;;;6.74;100.00
63281;BME280;49406;51.044;3.766;2023-12-20T00:49:46;101929.77;;;6.72;100.00
63281;BME280;49406;51.044;3.766;2023-12-20T00:52:20;101928.70;;;6.69;100.00
63281;BME280;49406;51.044;3.766;2023-12-20T00:54:55;101932.48;;;6.68;100.00
63281;BME280;49406;51.044;3.766;2023-12-20T00:57:28;101937.27;;;6.65;100.00
63281;BME280;49406;51.044;3.766;2023-12-20T01:00:05;101941.75;;;6.64;100.00
63281;BME280;49406;51.044;3.766;2023-12-20T01:02:40;101947.88;;;6.66;100.00
63281;BME280;49406;51.044;3.766;2023-12-20T01:05:14;101953.89;;;6.68;100.00
63281;BME280;49406;51.044;3.766;2023-12-20T01:07:49;101952.71;;;6.69;100.00
63281;BME280;49406;51.044;3.766;2023-12-20T01:10:23;101950.06;;;6.68;100.00
63281;BME280;49406;51.044;3.766;2023-12-20T01:13:01;101946.15;;;6.66;100.00
63281;BME280;49406;51.044;3.766;2023-12-20T01:15:36;101947.13;;;6.64;100.00
63281;BME280;49406;51.044;3.766;2023-12-20T01:18:10;101950.65;;;6.65;100.00
63281;BME280;49406;51.044;3.766;2023-12-20T01:20:45;101953.33;;;6.67;100.00
63281;BME280;49406;51.044;3.766;2023-12-20T01:23:20;101953.95;;;6.73;100.00
63281;BME280;49406;51.044;3.766;2023-12-20T01:25:54;101952.14;;;6.80;100.00
63281;BME280;49406;51.044;3.766;2023-12-20T01:28:29;101954.64;;;6.86;100.00
63281;BME280;49406;51.044;3.766;2023-12-20T01:31:04;101950.75;;;6.93;100.00
63281;BME280;49406;51.044;3.766;2023-12-20T01:33:38;101954.57;;;6.98;100.00
63281;BME280;49406;51.044;3.766;2023-12-20T01:36:13;101954.52;;;7.00;100.00
63281;BME280;49406;51.044;3.766;2023-12-20T01:38:47;101950.88;;;7.05;100.00
63281;BME280;49406;51.044;3.766;2023-12-20T01:41:22;101948.96;;;7.05;100.00
63281;BME280;49406;51.044;3.766;2023-12-20T01:43:57;101948.22;;;7.04;100.00
63281;BME280;49406;51.044;3.766;2023-12-20T01:46:32;101946.30;;;7.04;100.00
63281;BME280;49406;51.044;3.766;2023-12-20T01:49:06;101945.27;;;7.04;100.00
63281;BME280;49406;51.044;3.766;2023-12-20T01:51:42;101944.63;;;7.09;100.00
63281;BME280;49406;51.044;3.766;2023-12-20T01:54:17;101947.70;;;7.16;100.00
63281;BME280;49406;51.044;3.766;2023-12-20T01:56:53;101946.64;;;7.21;100.00
63281;BME280;49406;51.044;3.766;2023-12-20T01:59:30;101947.53;;;7.21;100.00
63281;BME280;49406;51.044;3.766;2023-12-20T02:02:05;101947.73;;;7.22;100.00
63281;BME280;49406;51.044;3.766;2023-12-20T02:04:39;101955.33;;;7.21;100.00
63281;BME280;49406;51.044;3.766;2023-12-20T02:07:15;101952.96;;;7.18;100.00
63281;BME280;49406;51.044;3.766;2023-12-20T02:09:49;101953.61;;;7.21;100.00
63281;BME280;49406;51.044;3.766;2023-12-20T02:12:24;101956.70;;;7.24;100.00
63281;BME280;49406;51.044;3.766;2023-12-20T02:14:59;101952.16;;;7.28;100.00
63281;BME280;49406;51.044;3.766;2023-12-20T02:17:34;101943.27;;;7.33;100.00
63281;BME280;49406;51.044;3.766;2023-12-20T02:20:09;101945.13;;;7.36;100.00
63281;BME280;49406;51.044;3.766;2023-12-20T02:22:44;101944.92;;;7.39;100.00
63281;BME280;49406;51.044;3.766;2023-12-20T02:25:18;101951.15;;;7.34;100.00
63281;BME280;49406;51.044;3.766;2023-12-20T02:27:53;101947.79;;;7.28;100.00
63281;BME280;49406;51.044;3.766;2023-12-20T02:30:28;101957.64;;;7.26;100.00
63281;BME280;49406;51.044;3.766;2023-12-20T02:33:02;101962.53;;;7.26;100.00
63281;BME280;49406;51.044;3.766;2023-12-20T02:35:38;101959.25;;;7.32;100.00
63281;BME280;49406;51.044;3.766;2023-12-20T02:38:12;101957.56;;;7.28;100.00
63281;BME280;49406;51.044;3.766;2023-12-20T02:40:47;101954.14;;;7.25;100.00
63281;BME280;49406;51.044;3.766;2023-12-20T02:43:21;101952.43;;;7.31;100.00
63281;BME280;49406;51.044;3.766;2023-12-20T02:45:56;101947.25;;;7.36;100.00
63281;BME280;49406;51.044;3.766;2023-12-20T02:48:30;101945.02;;;7.37;100.00
63281;BME280;49406;51.044;3.766;2023-12-20T02:51:05;101944.84;;;7.41;100.00
63281;BME280;49406;51.044;3.766;2023-12-20T02:53:39;101942.29;;;7.47;100.00
63281;BME280;49406;51.044;3.766;2023-12-20T02:56:14;101950.29;;;7.42;100.00
63281;BME280;49406;51.044;3.766;2023-12-20T02:58:49;101952.00;;;7.51;100.00
63281;BME280;49406;51.044;3.766;2023-12-20T03:01:23;101946.52;;;7.53;100.00
63281;BME280;49406;51.044;3.766;2023-12-20T03:03:58;101934.94;;;7.55;100.00
63281;BME280;49406;51.044;3.766;2023-12-20T03:06:32;101937.27;;;7.53;100.00
63281;BME280;49406;51.044;3.766;2023-12-20T03:09:07;101935.55;;;7.48;100.00
63281;BME280;49406;51.044;3.766;2023-12-20T03:11:41;101936.47;;;7.50;100.00
63281;BME280;49406;51.044;3.766;2023-12-20T03:14:16;101934.15;;;7.53;100.00
63281;BME280;49406;51.044;3.766;2023-12-20T03:16:51;101936.77;;;7.53;100.00
63281;BME280;49406;51.044;3.766;2023-12-20T03:19:25;101939.55;;;7.53;100.00
63281;BME280;49406;51.044;3.766;2023-12-20T03:22:00;101943.65;;;7.55;100.00
63281;BME280;49406;51.044;3.766;2023-12-20T03:24:35;101945.19;;;7.55;100.00
63281;BME280;49406;51.044;3.766;2023-12-20T03:27:09;101939.02;;;7.53;100.00
63281;BME280;49406;51.044;3.766;2023-12-20T03:29:44;101941.66;;;7.49;100.00
63281;BME280;49406;51.044;3.766;2023-12-20T03:32:18;101946.50;;;7.44;100.00
63281;BME280;49406;51.044;3.766;2023-12-20T03:34:53;101945.09;;;7.35;100.00
63281;BME280;49406;51.044;3.766;2023-12-20T03:37:26;101944.80;;;7.32;100.00
63281;BME280;49406;51.044;3.766;2023-12-20T03:40:00;101947.73;;;7.35;100.00
63281;BME280;49406;51.044;3.766;2023-12-20T03:42:35;101949.92;;;7.33;100.00
63281;BME280;49406;51.044;3.766;2023-12-20T03:45:10;101946.94;;;7.33;100.00
63281;BME280;49406;51.044;3.766;2023-12-20T03:47:45;101951.48;;;7.33;100.00
63281;BME280;49406;51.044;3.766;2023-12-20T03:50:19;101951.98;;;7.33;100.00
63281;BME280;49406;51.044;3.766;2023-12-20T03:52:54;101947.98;;;7.33;100.00
63281;BME280;49406;51.044;3.766;2023-12-20T03:55:29;101948.31;;;7.32;100.00
63281;BME280;49406;51.044;3.766;2023-12-20T03:58:03;101946.55;;;7.32;100.00
63281;BME280;49406;51.044;3.766;2023-12-20T04:00:38;101935.90;;;7.31;100.00
63281;BME280;49406;51.044;3.766;2023-12-20T04:03:12;101932.71;;;7.29;100.00
63281;BME280;49406;51.044;3.766;2023-12-20T04:05:47;101932.63;;;7.27;100.00
63281;BME280;49406;51.044;3.766;2023-12-20T04:08:22;101936.26;;;7.26;100.00
63281;BME280;49406;51.044;3.766;2023-12-20T04:10:57;101939.63;;;7.23;100.00
63281;BME280;49406;51.044;3.766;2023-12-20T04:13:31;101946.20;;;7.22;100.00
63281;BME280;49406;51.044;3.766;2023-12-20T04:16:06;101941.61;;;7.21;100.00
63281;BME280;49406;51.044;3.766;2023-12-20T04:18:41;101942.30;;;7.17;100.00
63281;BME280;49406;51.044;3.766;2023-12-20T04:21:14;101950.52;;;7.22;100.00
63281;BME280;49406;51.044;3.766;2023-12-20T04:23:48;101945.98;;;7.22;100.00
63281;BME280;49406;51.044;3.766;2023-12-20T04:26:23;101945.20;;;7.20;100.00
63281;BME280;49406;51.044;3.766;2023-12-20T04:28:57;101942.82;;;7.25;100.00
63281;BME280;49406;51.044;3.766;2023-12-20T04:31:32;101950.32;;;7.26;100.00
63281;BME280;49406;51.044;3.766;2023-12-20T04:34:06;101948.02;;;7.29;100.00
63281;BME280;49406;51.044;3.766;2023-12-20T04:36:39;101949.55;;;7.33;100.00
63281;BME280;49406;51.044;3.766;2023-12-20T04:39:14;101944.34;;;7.33;100.00
63281;BME280;49406;51.044;3.766;2023-12-20T04:41:49;101946.52;;;7.36;100.00
63281;BME280;49406;51.044;3.766;2023-12-20T04:44:23;101944.70;;;7.34;100.00
63281;BME280;49406;51.044;3.766;2023-12-20T04:46:58;101947.28;;;7.33;100.00
63281;BME280;49406;51.044;3.766;2023-12-20T04:49:32;101944.05;;;7.30;100.00
63281;BME280;49406;51.044;3.766;2023-12-20T04:52:07;101942.89;;;7.27;100.00
63281;BME280;49406;51.044;3.766;2023-12-20T04:54:42;101935.80;;;7.15;100.00
63281;BME280;49406;51.044;3.766;2023-12-20T04:57:16;101938.11;;;7.03;100.00
63281;BME280;49406;51.044;3.766;2023-12-20T04:59:51;101941.45;;;6.95;100.00
63281;BME280;49406;51.044;3.766;2023-12-20T05:02:25;101943.59;;;6.84;100.00
63281;BME280;49406;51.044;3.766;2023-12-20T05:05:00;101951.55;;;6.74;100.00
63281;BME280;49406;51.044;3.766;2023-12-20T05:07:35;101954.95;;;6.65;100.00
63281;BME280;49406;51.044;3.766;2023-12-20T05:10:10;101955.52;;;6.57;100.00
63281;BME280;49406;51.044;3.766;2023-12-20T05:12:45;101946.98;;;6.49;100.00
63281;BME280;49406;51.044;3.766;2023-12-20T05:15:19;101942.61;;;6.44;100.00
63281;BME280;49406;51.044;3.766;2023-12-20T05:17:54;101938.58;;;6.43;100.00
63281;BME280;49406;51.044;3.766;2023-12-20T05:20:28;101935.09;;;6.43;100.00
63281;BME280;49406;51.044;3.766;2023-12-20T05:23:03;101937.80;;;6.45;100.00
63281;BME280;49406;51.044;3.766;2023-12-20T05:25:38;101941.70;;;6.47;100.00
63281;BME280;49406;51.044;3.766;2023-12-20T05:28:12;101943.84;;;6.48;100.00
63281;BME280;49406;51.044;3.766;2023-12-20T05:30:47;101943.52;;;6.49;100.00
63281;BME280;49406;51.044;3.766;2023-12-20T05:33:21;101939.52;;;6.49;100.00
63281;BME280;49406;51.044;3.766;2023-12-20T05:35:56;101942.04;;;6.51;100.00
63281;BME280;49406;51.044;3.766;2023-12-20T05:38:30;101940.57;;;6.53;100.00
63281;BME280;49406;51.044;3.766;2023-12-20T05:41:06;101943.49;;;6.56;100.00
63281;BME280;49406;51.044;3.766;2023-12-20T05:43:40;101939.42;;;6.58;100.00
63281;BME280;49406;51.044;3.766;2023-12-20T05:46:15;101944.90;;;6.61;100.00
63281;BME280;49406;51.044;3.766;2023-12-20T05:48:49;101948.46;;;6.63;100.00
63281;BME280;49406;51.044;3.766;2023-12-20T05:51:24;101946.70;;;6.66;100.00
63281;BME280;49406;51.044;3.766;2023-12-20T05:53:59;101942.70;;;6.71;100.00
63281;BME280;49406;51.044;3.766;2023-12-20T05:56:33;101948.77;;;6.71;100.00
63281;BME280;49406;51.044;3.766;2023-12-20T05:59:08;101947.36;;;6.70;100.00
63281;BME280;49406;51.044;3.766;2023-12-20T06:01:43;101942.80;;;6.69;100.00
63281;BME280;49406;51.044;3.766;2023-12-20T06:04:17;101952.45;;;6.67;100.00
63281;BME280;49406;51.044;3.766;2023-12-20T06:06:52;101954.80;;;6.65;100.00
63281;BME280;49406;51.044;3.766;2023-12-20T06:09:27;101954.66;;;6.66;100.00
63281;BME280;49406;51.044;3.766;2023-12-20T06:12:02;101952.84;;;6.64;100.00
63281;BME280;49406;51.044;3.766;2023-12-20T06:14:37;101952.23;;;6.58;100.00
63281;BME280;49406;51.044;3.766;2023-12-20T06:17:11;101950.30;;;6.49;100.00
63281;BME280;49406;51.044;3.766;2023-12-20T06:19:46;101943.83;;;6.48;100.00
63281;BME280;49406;51.044;3.766;2023-12-20T06:22:21;101942.11;;;6.48;100.00
63281;BME280;49406;51.044;3.766;2023-12-20T06:24:56;101943.08;;;6.46;100.00
63281;BME280;49406;51.044;3.766;2023-12-20T06:27:30;101944.63;;;6.42;100.00
63281;BME280;49406;51.044;3.766;2023-12-20T06:30:07;101950.06;;;6.35;100.00
63281;BME280;49406;51.044;3.766;2023-12-20T06:32:42;101954.84;;;6.33;100.00
63281;BME280;49406;51.044;3.766;2023-12-20T06:35:15;101962.73;;;6.35;100.00
63281;BME280;49406;51.044;3.766;2023-12-20T06:37:50;101961.08;;;6.37;100.00
63281;BME280;49406;51.044;3.766;2023-12-20T06:40:25;101956.92;;;6.33;100.00
63281;BME280;49406;51.044;3.766;2023-12-20T06:43:00;101956.34;;;6.32;100.00
63281;BME280;49406;51.044;3.766;2023-12-20T06:45:34;101942.88;;;6.34;100.00
63281;BME280;49406;51.044;3.766;2023-12-20T06:48:09;101951.89;;;6.29;100.00
63281;BME280;49406;51.044;3.766;2023-12-20T06:50:45;101948.41;;;6.25;100.00
63281;BME280;49406;51.044;3.766;2023-12-20T06:53:19;101945.16;;;6.22;100.00
63281;BME280;49406;51.044;3.766;2023-12-20T06:55:54;101945.13;;;6.18;100.00
63281;BME280;49406;51.044;3.766;2023-12-20T06:58:29;101938.77;;;6.19;100.00
63281;BME280;49406;51.044;3.766;2023-12-20T07:01:04;101930.13;;;6.16;100.00
63281;BME280;49406;51.044;3.766;2023-12-20T07:03:39;101928.02;;;6.07;100.00
63281;BME280;49406;51.044;3.766;2023-12-20T07:06:13;101927.65;;;6.07;100.00
63281;BME280;49406;51.044;3.766;2023-12-20T07:08:49;101930.80;;;6.04;100.00
63281;BME280;49406;51.044;3.766;2023-12-20T07:11:24;101935.30;;;6.03;100.00
63281;BME280;49406;51.044;3.766;2023-12-20T07:13:59;101942.69;;;6.02;100.00
63281;BME280;49406;51.044;3.766;2023-12-20T07:16:34;101937.77;;;6.00;100.00
63281;BME280;49406;51.044;3.766;2023-12-20T07:19:09;101942.10;;;5.96;100.00
63281;BME280;49406;51.044;3.766;2023-12-20T07:21:44;101945.80;;;5.93;100.00
63281;BME280;49406;51.044;3.766;2023-12-20T07:24:18;101943.13;;;5.89;100.00
63281;BME280;49406;51.044;3.766;2023-12-20T07:26:53;101945.92;;;5.92;100.00
63281;BME280;49406;51.044;3.766;2023-12-20T07:29:27;101940.32;;;5.91;100.00
63281;BME280;49406;51.044;3.766;2023-12-20T07:32:02;101938.73;;;5.88;100.00
63281;BME280;49406;51.044;3.766;2023-12-20T07:34:36;101936.88;;;5.85;100.00
63281;BME280;49406;51.044;3.766;2023-12-20T07:37:11;101944.75;;;5.87;100.00
63281;BME280;49406;51.044;3.766;2023-12-20T07:39:46;101947.18;;;5.89;100.00
63281;BME280;49406;51.044;3.766;2023-12-20T07:42:21;101950.34;;;5.90;100.00
63281;BME280;49406;51.044;3.766;2023-12-20T07:44:56;101945.75;;;5.92;100.00
63281;BME280;49406;51.044;3.766;2023-12-20T07:47:30;101947.48;;;5.92;100.00
63281;BME280;49406;51.044;3.766;2023-12-20T07:50:06;101954.70;;;5.94;100.00
63281;BME280;49406;51.044;3.766;2023-12-20T07:52:40;101954.34;;;5.94;100.00
63281;BME280;49406;51.044;3.766;2023-12-20T07:55:15;101956.69;;;5.96;100.00
63281;BME280;49406;51.044;3.766;2023-12-20T07:57:50;101958.97;;;6.01;100.00
63281;BME280;49406;51.044;3.766;2023-12-20T08:00:24;101966.34;;;6.06;100.00
63281;BME280;49406;51.044;3.766;2023-12-20T08:02:57;101968.32;;;6.08;100.00
63281;BME280;49406;51.044;3.766;2023-12-20T08:05:32;101972.44;;;6.06;100.00
63281;BME280;49406;51.044;3.766;2023-12-20T08:08:07;101972.80;;;6.07;100.00
63281;BME280;49406;51.044;3.766;2023-12-20T08:10:42;101967.48;;;6.08;100.00
63281;BME280;49406;51.044;3.766;2023-12-20T08:13:17;101963.79;;;6.04;100.00
63281;BME280;49406;51.044;3.766;2023-12-20T08:15:51;101960.14;;;6.00;100.00
63281;BME280;49406;51.044;3.766;2023-12-20T08:18:26;101961.13;;;6.02;100.00
63281;BME280;49406;51.044;3.766;2023-12-20T08:21:01;101953.05;;;6.12;100.00
63281;BME280;49406;51.044;3.766;2023-12-20T08:23:35;101955.38;;;6.06;100.00
63281;BME280;49406;51.044;3.766;2023-12-20T08:26:10;101960.14;;;6.07;100.00
63281;BME280;49406;51.044;3.766;2023-12-20T08:28:45;101960.98;;;6.11;100.00
63281;BME280;49406;51.044;3.766;2023-12-20T08:31:19;101962.82;;;6.13;100.00
63281;BME280;49406;51.044;3.766;2023-12-20T08:33:54;101961.42;;;6.13;100.00
63281;BME280;49406;51.044;3.766;2023-12-20T08:36:28;101961.45;;;6.14;100.00
63281;BME280;49406;51.044;3.766;2023-12-20T08:39:03;101959.73;;;6.14;100.00
63281;BME280;49406;51.044;3.766;2023-12-20T08:41:40;101960.80;;;6.14;100.00
63281;BME280;49406;51.044;3.766;2023-12-20T08:44:15;101952.67;;;6.15;100.00
63281;BME280;49406;51.044;3.766;2023-12-20T08:46:49;101945.90;;;6.19;100.00
63281;BME280;49406;51.044;3.766;2023-12-20T08:49:24;101951.04;;;6.22;100.00
63281;BME280;49406;51.044;3.766;2023-12-20T08:51:58;101942.95;;;6.23;100.00
63281;BME280;49406;51.044;3.766;2023-12-20T08:54:33;101947.79;;;6.26;100.00
63281;BME280;49406;51.044;3.766;2023-12-20T08:57:08;101943.72;;;6.33;100.00
63281;BME280;49406;51.044;3.766;2023-12-20T08:59:42;101942.02;;;6.38;100.00
63281;BME280;49406;51.044;3.766;2023-12-20T09:02:17;101944.89;;;6.44;100.00
63281;BME280;49406;51.044;3.766;2023-12-20T09:04:51;101940.10;;;6.50;100.00
63281;BME280;49406;51.044;3.766;2023-12-20T09:07:26;101938.01;;;6.58;100.00
63281;BME280;49406;51.044;3.766;2023-12-20T09:10:04;101944.14;;;6.59;100.00
63281;BME280;49406;51.044;3.766;2023-12-20T09:12:38;101944.86;;;6.64;100.00
63281;BME280;49406;51.044;3.766;2023-12-20T09:15:14;101941.20;;;6.72;100.00
63281;BME280;49406;51.044;3.766;2023-12-20T09:17:49;101941.51;;;6.84;100.00
63281;BME280;49406;51.044;3.766;2023-12-20T09:20:23;101943.42;;;6.92;100.00
63281;BME280;49406;51.044;3.766;2023-12-20T09:22:58;101943.70;;;7.04;100.00
63281;BME280;49406;51.044;3.766;2023-12-20T09:25:32;101942.33;;;7.08;100.00
63281;BME280;49406;51.044;3.766;2023-12-20T09:28:07;101947.50;;;7.12;100.00
63281;BME280;49406;51.044;3.766;2023-12-20T09:30:42;101944.34;;;7.11;100.00
63281;BME280;49406;51.044;3.766;2023-12-20T09:33:18;101952.09;;;7.13;100.00
63281;BME280;49406;51.044;3.766;2023-12-20T09:35:52;101948.52;;;7.15;100.00
63281;BME280;49406;51.044;3.766;2023-12-20T09:38:27;101947.29;;;7.19;100.00
63281;BME280;49406;51.044;3.766;2023-12-20T09:41:02;101944.23;;;7.26;100.00
63281;BME280;49406;51.044;3.766;2023-12-20T09:43:39;101946.88;;;7.31;100.00
63281;BME280;49406;51.044;3.766;2023-12-20T09:46:17;101951.73;;;7.40;100.00
63281;BME280;49406;51.044;3.766;2023-12-20T09:48:54;101948.98;;;7.58;100.00
63281;BME280;49406;51.044;3.766;2023-12-20T09:51:30;101953.56;;;7.74;100.00
63281;BME280;49406;51.044;3.766;2023-12-20T09:54:05;101947.20;;;7.85;100.00
63281;BME280;49406;51.044;3.766;2023-12-20T09:56:40;101944.89;;;7.94;100.00
63281;BME280;49406;51.044;3.766;2023-12-20T09:59:14;101942.73;;;8.01;100.00
63281;BME280;49406;51.044;3.766;2023-12-20T10:01:49;101943.92;;;8.10;100.00
63281;BME280;49406;51.044;3.766;2023-12-20T10:04:25;101945.86;;;8.16;100.00
63281;BME280;49406;51.044;3.766;2023-12-20T10:07:03;101945.59;;;8.23;100.00
63281;BME280;49406;51.044;3.766;2023-12-20T10:09:38;101951.92;;;8.30;100.00
63281;BME280;49406;51.044;3.766;2023-12-20T10:12:13;101953.27;;;8.37;100.00
63281;BME280;49406;51.044;3.766;2023-12-20T10:14:47;101955.42;;;8.43;100.00
63281;BME280;49406;51.044;3.766;2023-12-20T10:17:23;101948.78;;;8.43;100.00
63281;BME280;49406;51.044;3.766;2023-12-20T10:19:58;101946.69;;;8.49;100.00
63281;BME280;49406;51.044;3.766;2023-12-20T10:22:33;101946.30;;;8.52;100.00
63281;BME280;49406;51.044;3.766;2023-12-20T10:25:09;101940.42;;;8.54;100.00
63281;BME280;49406;51.044;3.766;2023-12-20T10:27:44;101932.51;;;8.52;100.00
63281;BME280;49406;51.044;3.766;2023-12-20T10:30:18;101932.45;;;8.50;100.00
63281;BME280;49406;51.044;3.766;2023-12-20T10:32:53;101921.17;;;8.57;100.00
63281;BME280;49406;51.044;3.766;2023-12-20T10:35:27;101917.67;;;8.61;100.00
63281;BME280;49406;51.044;3.766;2023-12-20T10:38:04;101908.52;;;8.69;100.00
63281;BME280;49406;51.044;3.766;2023-12-20T10:40:39;101901.98;;;8.72;100.00
63281;BME280;49406;51.044;3.766;2023-12-20T10:43:14;101894.75;;;8.69;100.00
63281;BME280;49406;51.044;3.766;2023-12-20T10:45:49;101902.16;;;8.77;100.00
63281;BME280;49406;51.044;3.766;2023-12-20T10:48:24;101906.61;;;8.80;100.00
63281;BME280;49406;51.044;3.766;2023-12-20T10:51:02;101913.30;;;8.82;100.00
63281;BME280;49406;51.044;3.766;2023-12-20T10:53:40;101910.30;;;8.87;100.00
63281;BME280;49406;51.044;3.766;2023-12-20T10:56:17;101907.49;;;8.86;100.00
63281;BME280;49406;51.044;3.766;2023-12-20T10:58:52;101902.60;;;8.86;100.00
63281;BME280;49406;51.044;3.766;2023-12-20T11:01:28;101901.15;;;8.95;100.00
63281;BME280;49406;51.044;3.766;2023-12-20T11:04:08;101900.42;;;8.99;100.00
63281;BME280;49406;51.044;3.766;2023-12-20T11:06:51;101903.04;;;8.99;100.00
63281;BME280;49406;51.044;3.766;2023-12-20T11:09:31;101892.46;;;9.01;100.00
63281;BME280;49406;51.044;3.766;2023-12-20T11:12:13;101890.94;;;9.03;100.00
63281;BME280;49406;51.044;3.766;2023-12-20T11:14:49;101890.69;;;9.06;100.00
63281;BME280;49406;51.044;3.766;2023-12-20T11:17:23;101889.45;;;9.16;100.00
63281;BME280;49406;51.044;3.766;2023-12-20T11:20:08;101889.43;;;9.22;100.00
63281;BME280;49406;51.044;3.766;2023-12-20T11:22:55;101892.52;;;9.25;100.00
63281;BME280;49406;51.044;3.766;2023-12-20T11:25:30;101894.14;;;9.33;100.00
63281;BME280;49406;51.044;3.766;2023-12-20T11:28:12;101889.37;;;9.37;100.00
63281;BME280;49406;51.044;3.766;2023-12-20T11:30:52;101873.77;;;9.47;100.00
63281;BME280;49406;51.044;3.766;2023-12-20T11:33:29;101863.70;;;9.55;100.00
63281;BME280;49406;51.044;3.766;2023-12-20T11:36:13;101861.04;;;9.65;100.00
63281;BME280;49406;51.044;3.766;2023-12-20T11:38:58;101854.35;;;9.70;100.00
63281;BME280;49406;51.044;3.766;2023-12-20T11:41:34;101860.92;;;9.73;100.00
63281;BME280;49406;51.044;3.766;2023-12-20T11:44:08;101862.98;;;9.73;100.00
63281;BME280;49406;51.044;3.766;2023-12-20T11:46:45;101856.95;;;9.76;100.00
63281;BME280;49406;51.044;3.766;2023-12-20T11:49:22;101849.13;;;9.83;100.00
63281;BME280;49406;51.044;3.766;2023-12-20T11:51:56;101847.38;;;9.83;100.00
63281;BME280;49406;51.044;3.766;2023-12-20T11:54:33;101842.89;;;9.78;100.00
63281;BME280;49406;51.044;3.766;2023-12-20T11:57:09;101837.86;;;9.73;100.00
63281;BME280;49406;51.044;3.766;2023-12-20T11:59:44;101840.25;;;9.72;100.00
63281;BME280;49406;51.044;3.766;2023-12-20T12:02:18;101841.30;;;9.72;100.00
63281;BME280;49406;51.044;3.766;2023-12-20T12:04:53;101835.58;;;9.79;100.00
63281;BME280;49406;51.044;3.766;2023-12-20T12:07:28;101826.31;;;9.79;100.00
63281;BME280;49406;51.044;3.766;2023-12-20T12:10:03;101823.63;;;9.77;100.00
63281;BME280;49406;51.044;3.766;2023-12-20T12:12:37;101823.15;;;9.78;100.00
63281;BME280;49406;51.044;3.766;2023-12-20T12:15:13;101823.23;;;9.81;100.00
63281;BME280;49406;51.044;3.766;2023-12-20T12:17:55;101826.77;;;9.83;100.00
63281;BME280;49406;51.044;3.766;2023-12-20T12:20:30;101817.75;;;9.79;100.00
63281;BME280;49406;51.044;3.766;2023-12-20T12:23:05;101816.87;;;9.78;100.00
63281;BME280;49406;51.044;3.766;2023-12-20T12:25:40;101814.76;;;9.78;100.00
63281;BME280;49406;51.044;3.766;2023-12-20T12:28:14;101817.31;;;9.75;100.00
63281;BME280;49406;51.044;3.766;2023-12-20T12:30:58;101806.36;;;9.77;100.00
63281;BME280;49406;51.044;3.766;2023-12-20T12:33:33;101803.39;;;9.84;100.00
63281;BME280;49406;51.044;3.766;2023-12-20T12:36:08;101795.67;;;9.90;100.00
63281;BME280;49406;51.044;3.766;2023-12-20T12:38:41;101792.15;;;9.95;100.00
63281;BME280;49406;51.044;3.766;2023-12-20T12:41:16;101792.01;;;10.03;100.00
63281;BME280;49406;51.044;3.766;2023-12-20T12:43:50;101789.45;;;10.12;100.00
63281;BME280;49406;51.044;3.766;2023-12-20T12:46:24;101791.62;;;10.22;100.00
63281;BME280;49406;51.044;3.766;2023-12-20T12:48:59;101789.73;;;10.30;100.00
63281;BME280;49406;51.044;3.766;2023-12-20T12:51:34;101789.80;;;10.46;100.00
63281;BME280;49406;51.044;3.766;2023-12-20T12:54:08;101780.09;;;10.50;100.00
63281;BME280;49406;51.044;3.766;2023-12-20T12:56:43;101779.61;;;10.52;100.00
63281;BME280;49406;51.044;3.766;2023-12-20T12:59:17;101772.75;;;10.50;100.00
63281;BME280;49406;51.044;3.766;2023-12-20T13:01:52;101766.80;;;10.50;100.00
63281;BME280;49406;51.044;3.766;2023-12-20T13:04:26;101762.85;;;10.53;100.00
63281;BME280;49406;51.044;3.766;2023-12-20T13:07:01;101755.91;;;10.56;100.00
63281;BME280;49406;51.044;3.766;2023-12-20T13:09:36;101751.98;;;10.52;100.00
63281;BME280;49406;51.044;3.766;2023-12-20T13:12:10;101756.36;;;10.52;100.00
63281;BME280;49406;51.044;3.766;2023-12-20T13:14:45;101750.05;;;10.52;100.00
63281;BME280;49406;51.044;3.766;2023-12-20T13:17:20;101740.61;;;10.60;100.00
63281;BME280;49406;51.044;3.766;2023-12-20T13:19:55;101737.77;;;10.65;100.00
63281;BME280;49406;51.044;3.766;2023-12-20T13:22:29;101728.05;;;10.69;100.00
63281;BME280;49406;51.044;3.766;2023-12-20T13:25:05;101725.96;;;10.70;100.00
63281;BME280;49406;51.044;3.766;2023-12-20T13:27:39;101716.36;;;10.71;100.00
63281;BME280;49406;51.044;3.766;2023-12-20T13:30:16;101718.75;;;10.76;100.00